Time;durP1;ratioP1;P1;durP2;ratioP2;P2;SDS_P1;SDS_P2;PMS_P1;PMS_P2;Temp;Humidity;BMP_temperature;BMP_pressure;BME280_temperature;BME280_humidity;BME280_pressure;Samples;Min_cycle;Max_cycle;Signal;HPM_P1;HPM_P2
2022/03/16 00:00:19;;;;;;;25.45;20.13;;;7.00;86.60;;;;;;5021066;28;20041;-76
2022/03/16 00:02:45;;;;;;;23.55;19.98;;;7.00;86.60;;;;;;5020306;28;20110;-77
2022/03/16 00:05:11;;;;;;;23.45;20.52;;;6.90;86.70;;;;;;5028771;28;20047;-75
2022/03/16 00:07:37;;;;;;;23.10;20.08;;;7.00;86.80;;;;;;5028356;28;20191;-77
2022/03/16 00:10:05;;;;;;;23.98;20.65;;;7.00;86.80;;;;;;5036219;28;20174;-77
2022/03/16 00:12:30;;;;;;;38.85;29.80;;;7.00;86.80;;;;;;5040696;28;20037;-76
2022/03/16 00:14:56;;;;;;;43.42;30.63;;;7.00;86.80;;;;;;5036557;28;20041;-75
2022/03/16 00:17:22;;;;;;;39.65;27.42;;;7.10;86.80;;;;;;5023334;28;20037;-75
2022/03/16 00:19:48;;;;;;;31.25;23.70;;;7.10;86.60;;;;;;5024471;28;20466;-76
2022/03/16 00:22:13;;;;;;;32.03;23.55;;;7.00;86.50;;;;;;5024160;28;20033;-79
2022/03/16 00:24:39;;;;;;;30.83;24.13;;;7.00;86.50;;;;;;5034518;28;20571;-75
2022/03/16 00:27:05;;;;;;;29.30;22.33;;;7.00;86.40;;;;;;5039300;28;20036;-75
2022/03/16 00:29:30;;;;;;;29.30;21.95;;;6.90;86.40;;;;;;5030455;28;20026;-75
2022/03/16 00:31:58;;;;;;;31.65;22.95;;;6.90;86.40;;;;;;5028205;28;20116;-75
2022/03/16 00:34:24;;;;;;;27.10;22.15;;;6.90;86.40;;;;;;5027636;28;20030;-72
2022/03/16 00:36:49;;;;;;;25.52;21.25;;;7.00;86.40;;;;;;5024400;28;20053;-73
2022/03/16 00:39:15;;;;;;;24.27;19.10;;;6.90;86.30;;;;;;5022936;28;20158;-75
2022/03/16 00:41:41;;;;;;;22.95;20.42;;;6.90;86.30;;;;;;5027915;28;20105;-75
2022/03/16 00:44:07;;;;;;;24.70;19.85;;;6.80;86.40;;;;;;5023845;28;20034;-74
2022/03/16 00:46:33;;;;;;;23.45;19.35;;;6.80;86.40;;;;;;5028037;28;20068;-75
2022/03/16 00:48:59;;;;;;;24.60;20.08;;;6.70;86.50;;;;;;5023838;28;20175;-74
2022/03/16 00:51:25;;;;;;;23.98;19.30;;;6.70;86.50;;;;;;5053032;28;20130;-78
2022/03/16 00:53:52;;;;;;;24.02;20.23;;;6.80;86.50;;;;;;5052318;28;20033;-78
2022/03/16 00:56:18;;;;;;;24.45;19.58;;;6.70;86.60;;;;;;5050664;28;20041;-78
2022/03/16 00:58:43;;;;;;;23.83;19.83;;;6.70;86.70;;;;;;5049010;28;20039;-79
2022/03/16 01:01:09;;;;;;;25.42;21.00;;;6.70;86.70;;;;;;5036100;28;20116;-74
2022/03/16 01:03:35;;;;;;;24.90;20.35;;;6.60;86.70;;;;;;5028179;28;20025;-76
2022/03/16 01:06:02;;;;;;;26.35;21.23;;;6.60;86.70;;;;;;5023587;28;20116;-75
2022/03/16 01:08:28;;;;;;;23.85;20.05;;;6.60;86.70;;;;;;5022417;28;20033;-76
2022/03/16 01:10:54;;;;;;;25.42;21.30;;;6.60;86.80;;;;;;5019312;28;20124;-75
2022/03/16 01:13:20;;;;;;;24.65;21.77;;;6.60;87.00;;;;;;5032993;28;20552;-75
2022/03/16 01:15:45;;;;;;;25.48;21.55;;;6.60;87.10;;;;;;5033683;28;20039;-73
2022/03/16 01:18:11;;;;;;;23.17;20.67;;;6.60;87.20;;;;;;5021325;28;20485;-74
2022/03/16 01:20:37;;;;;;;26.55;22.33;;;6.60;87.20;;;;;;5019865;28;20095;-75
2022/03/16 01:23:02;;;;;;;24.52;21.63;;;6.50;87.30;;;;;;5027730;28;20057;-73
2022/03/16 01:25:28;;;;;;;28.10;23.17;;;6.50;87.40;;;;;;5030905;28;20530;-76
2022/03/16 01:27:54;;;;;;;27.65;21.85;;;6.50;87.50;;;;;;5023405;28;20465;-74
2022/03/16 01:30:20;;;;;;;29.27;23.13;;;6.50;87.50;;;;;;5025992;28;20037;-75
2022/03/16 01:32:45;;;;;;;26.90;22.00;;;6.40;87.60;;;;;;5028451;28;20033;-74
2022/03/16 01:35:11;;;;;;;27.13;22.67;;;6.40;87.70;;;;;;5026437;28;20045;-74
2022/03/16 01:37:37;;;;;;;28.52;22.50;;;6.40;87.80;;;;;;5024478;28;20033;-77
2022/03/16 01:40:05;;;;;;;25.42;21.60;;;6.40;87.70;;;;;;5023795;28;20154;-75
2022/03/16 01:42:32;;;;;;;27.33;23.50;;;6.40;87.80;;;;;;5029383;28;20030;-78
2022/03/16 01:44:57;;;;;;;26.25;23.38;;;6.40;87.80;;;;;;5023374;28;20036;-75
2022/03/16 01:47:25;;;;;;;26.15;22.10;;;6.30;87.80;;;;;;5024017;28;20041;-75
2022/03/16 01:49:52;;;;;;;28.48;23.50;;;6.30;87.80;;;;;;5029606;28;20029;-74
2022/03/16 01:52:29;;;;;;;26.45;22.58;;;6.30;87.80;;;;;;5029900;28;20041;-75
2022/03/16 01:54:56;;;;;;;28.00;23.25;;;6.20;87.90;;;;;;5021825;28;20038;-76
2022/03/16 01:57:22;;;;;;;26.92;23.25;;;6.20;87.90;;;;;;5023164;28;20068;-74
2022/03/16 01:59:49;;;;;;;28.15;23.52;;;6.20;88.00;;;;;;5025951;28;20415;-75
2022/03/16 02:02:16;;;;;;;28.20;24.73;;;6.20;88.00;;;;;;5022288;28;20473;-77
2022/03/16 02:04:43;;;;;;;28.83;25.48;;;6.20;88.10;;;;;;5028685;28;20507;-76
2022/03/16 02:07:08;;;;;;;28.35;23.80;;;6.20;88.10;;;;;;5033949;28;20036;-77
2022/03/16 02:09:34;;;;;;;26.83;23.52;;;6.20;88.00;;;;;;5032151;28;20041;-74
2022/03/16 02:12:00;;;;;;;27.15;23.88;;;6.10;88.10;;;;;;5024457;28;20025;-74
2022/03/16 02:14:26;;;;;;;27.98;24.20;;;6.20;88.10;;;;;;5032043;28;20200;-76
2022/03/16 02:16:55;;;;;;;28.38;25.27;;;6.20;88.20;;;;;;5023434;28;20041;-75
2022/03/16 02:19:20;;;;;;;28.38;25.13;;;6.20;88.20;;;;;;5027061;28;20191;-73
2022/03/16 02:21:49;;;;;;;28.52;25.20;;;6.30;88.20;;;;;;5025406;28;20655;-75
2022/03/16 02:24:16;;;;;;;28.38;24.80;;;6.40;88.20;;;;;;5026358;28;20132;-77
2022/03/16 02:26:41;;;;;;;28.55;25.42;;;6.40;88.10;;;;;;5024763;28;20033;-74
2022/03/16 02:29:07;;;;;;;28.08;25.17;;;6.50;88.10;;;;;;5021050;28;20052;-78
2022/03/16 02:31:32;;;;;;;28.85;25.40;;;6.50;88.10;;;;;;5029911;28;20397;-74
2022/03/16 02:33:58;;;;;;;29.63;25.65;;;6.60;88.00;;;;;;5025702;28;20033;-76
2022/03/16 02:36:24;;;;;;;28.48;25.45;;;6.60;87.90;;;;;;5022704;28;20068;-77
2022/03/16 02:38:49;;;;;;;28.40;24.70;;;6.60;87.80;;;;;;5027711;28;20045;-74
2022/03/16 02:41:15;;;;;;;32.10;27.30;;;6.60;87.90;;;;;;5027152;28;20103;-73
2022/03/16 02:43:41;;;;;;;30.95;26.83;;;6.70;87.90;;;;;;5029020;28;20467;-76
2022/03/16 02:46:07;;;;;;;31.50;27.58;;;6.80;88.00;;;;;;5025506;28;20037;-74
2022/03/16 02:48:33;;;;;;;35.70;28.70;;;6.80;88.20;;;;;;5032277;28;20454;-74
2022/03/16 02:50:58;;;;;;;32.63;27.77;;;6.90;88.40;;;;;;5034078;28;20120;-74
2022/03/16 02:53:24;;;;;;;33.05;29.45;;;7.00;88.30;;;;;;5028653;28;20152;-75
2022/03/16 02:55:51;;;;;;;37.13;30.00;;;7.00;88.40;;;;;;5027485;28;20132;-74
2022/03/16 02:58:17;;;;;;;31.80;28.40;;;7.10;88.50;;;;;;5032512;28;20137;-74
2022/03/16 03:00:43;;;;;;;33.13;29.58;;;7.00;88.40;;;;;;5023535;28;20030;-78
2022/03/16 03:03:09;;;;;;;32.22;28.75;;;7.10;88.40;;;;;;5022652;28;20034;-75
2022/03/16 03:05:34;;;;;;;31.95;28.38;;;7.10;88.30;;;;;;5016387;28;20094;-74
2022/03/16 03:08:00;;;;;;;30.88;27.13;;;7.10;88.20;;;;;;5021578;28;20062;-74
2022/03/16 03:10:26;;;;;;;33.50;28.65;;;7.20;88.20;;;;;;5022139;28;20133;-74
2022/03/16 03:12:52;;;;;;;34.63;29.13;;;7.10;88.20;;;;;;5025978;28;20033;-74
2022/03/16 03:15:18;;;;;;;33.40;29.85;;;7.20;88.20;;;;;;5024451;28;20056;-78
2022/03/16 03:17:44;;;;;;;31.55;28.13;;;7.20;88.20;;;;;;5026942;28;20455;-74
2022/03/16 03:20:11;;;;;;;33.90;30.15;;;7.20;88.20;;;;;;5027163;28;20053;-76
2022/03/16 03:22:36;;;;;;;32.35;28.70;;;7.30;88.20;;;;;;5022920;28;20044;-74
2022/03/16 03:25:03;;;;;;;31.33;28.02;;;7.20;88.10;;;;;;5022826;28;20037;-74
2022/03/16 03:27:30;;;;;;;31.33;27.85;;;7.30;88.00;;;;;;5029470;28;20060;-75
2022/03/16 03:29:56;;;;;;;33.15;29.55;;;7.20;88.00;;;;;;5030968;28;20103;-76
2022/03/16 03:32:22;;;;;;;33.67;30.02;;;7.20;88.00;;;;;;5030390;28;20465;-75
2022/03/16 03:34:51;;;;;;;34.95;31.17;;;7.20;88.00;;;;;;5025609;28;20029;-78
2022/03/16 03:37:18;;;;;;;34.88;31.15;;;7.20;88.10;;;;;;5026208;28;20504;-74
2022/03/16 03:39:44;;;;;;;34.13;30.58;;;7.20;88.20;;;;;;5022716;28;20366;-74
2022/03/16 03:42:10;;;;;;;33.10;29.23;;;7.20;88.20;;;;;;5027559;28;20185;-75
2022/03/16 03:44:39;;;;;;;33.17;29.63;;;7.30;88.20;;;;;;5027616;28;20034;-78
2022/03/16 03:47:06;;;;;;;34.78;31.00;;;7.30;88.20;;;;;;5025424;28;20030;-75
2022/03/16 03:49:39;;;;;;;34.95;31.17;;;7.30;88.30;;;;;;5031420;28;20149;-73
2022/03/16 03:52:06;;;;;;;34.17;30.50;;;7.30;88.20;;;;;;5031626;28;20477;-75
2022/03/16 03:54:31;;;;;;;33.22;29.00;;;7.30;88.30;;;;;;5025980;28;20037;-74
2022/03/16 03:56:57;;;;;;;32.88;29.27;;;7.30;88.40;;;;;;5031653;28;20026;-75
2022/03/16 03:59:23;;;;;;;33.85;30.08;;;7.30;88.30;;;;;;5023258;28;20031;-75
2022/03/16 04:01:49;;;;;;;33.80;30.15;;;7.30;88.20;;;;;;5027146;28;20040;-75
2022/03/16 04:04:15;;;;;;;34.05;30.48;;;7.30;88.20;;;;;;5025816;28;20154;-75
2022/03/16 04:06:40;;;;;;;34.85;30.60;;;7.40;88.20;;;;;;5026273;28;20029;-74
2022/03/16 04:09:06;;;;;;;34.22;30.52;;;7.30;88.20;;;;;;5022895;28;20031;-76
2022/03/16 04:11:32;;;;;;;34.20;30.65;;;7.30;88.30;;;;;;5026166;28;20441;-73
2022/03/16 04:13:58;;;;;;;34.58;29.58;;;7.40;88.30;;;;;;5028179;28;20033;-75
2022/03/16 04:16:24;;;;;;;33.78;30.23;;;7.30;88.30;;;;;;5027868;28;20432;-75
2022/03/16 04:18:50;;;;;;;35.08;30.10;;;7.30;88.30;;;;;;5027941;28;20550;-74
2022/03/16 04:21:16;;;;;;;34.00;28.02;;;7.30;88.30;;;;;;5032951;28;20033;-75
2022/03/16 04:23:42;;;;;;;31.80;28.48;;;7.30;88.30;;;;;;5028601;28;20523;-76
2022/03/16 04:26:07;;;;;;;33.53;29.60;;;7.40;88.20;;;;;;5033082;28;20080;-75
2022/03/16 04:28:33;;;;;;;33.13;29.52;;;7.40;88.20;;;;;;5029943;28;20111;-77
2022/03/16 04:31:02;;;;;;;33.50;29.40;;;7.30;88.20;;;;;;5031810;28;20452;-75
2022/03/16 04:33:29;;;;;;;32.78;28.65;;;7.40;88.20;;;;;;5032291;28;20029;-78
2022/03/16 04:35:55;;;;;;;32.78;29.02;;;7.40;88.10;;;;;;5029617;28;20112;-75
2022/03/16 04:38:21;;;;;;;33.80;30.20;;;7.40;88.10;;;;;;5031362;28;20056;-75
2022/03/16 04:40:47;;;;;;;31.48;28.13;;;7.40;88.10;;;;;;5029632;28;20404;-74
2022/03/16 04:43:13;;;;;;;32.28;28.88;;;7.30;88.10;;;;;;5031489;28;20033;-75
2022/03/16 04:45:39;;;;;;;31.98;28.58;;;7.40;88.10;;;;;;5024534;28;20466;-74
2022/03/16 04:48:09;;;;;;;31.65;27.70;;;7.30;88.10;;;;;;5029758;28;20063;-74
2022/03/16 04:50:39;;;;;;;31.33;28.08;;;7.40;88.10;;;;;;5024438;28;20041;-76
2022/03/16 04:53:05;;;;;;;31.05;26.98;;;7.40;88.10;;;;;;5038278;28;20029;-74
2022/03/16 04:55:32;;;;;;;29.25;26.10;;;7.40;88.10;;;;;;5029808;28;20092;-74
2022/03/16 04:57:59;;;;;;;29.75;26.10;;;7.40;88.00;;;;;;5028031;28;20041;-75
2022/03/16 05:00:25;;;;;;;30.45;26.80;;;7.30;88.00;;;;;;5025189;28;20117;-75
2022/03/16 05:02:51;;;;;;;29.27;26.10;;;7.30;88.00;;;;;;5032549;28;20037;-73
2022/03/16 05:05:16;;;;;;;33.13;27.98;;;7.20;87.90;;;;;;5027948;28;20495;-77
2022/03/16 05:07:42;;;;;;;35.00;28.67;;;7.30;88.00;;;;;;5024662;28;20032;-74
2022/03/16 05:10:09;;;;;;;31.23;27.63;;;7.20;88.00;;;;;;5035767;28;20776;-75
2022/03/16 05:12:42;;;;;;;30.85;26.13;;;7.20;88.00;;;;;;5026272;28;20040;-74
2022/03/16 05:15:10;;;;;;;31.52;26.98;;;7.20;87.90;;;;;;5026750;28;20029;-75
2022/03/16 05:17:36;;;;;;;30.05;26.75;;;7.20;88.00;;;;;;5021810;28;20041;-76
2022/03/16 05:20:03;;;;;;;31.05;27.65;;;7.20;87.90;;;;;;5030501;28;20086;-77
2022/03/16 05:22:28;;;;;;;30.40;26.88;;;7.20;88.00;;;;;;5032713;28;20140;-76
2022/03/16 05:24:54;;;;;;;30.23;26.75;;;7.20;88.00;;;;;;5019374;28;20038;-75
2022/03/16 05:27:20;;;;;;;30.02;25.40;;;7.20;88.00;;;;;;5031346;28;20477;-74
2022/03/16 05:29:47;;;;;;;27.77;24.20;;;7.20;88.00;;;;;;5029961;28;20464;-74
2022/03/16 05:32:13;;;;;;;32.25;27.45;;;7.10;87.90;;;;;;5030048;28;20033;-78
2022/03/16 05:34:39;;;;;;;30.95;25.80;;;7.10;87.80;;;;;;5020098;28;20095;-75
2022/03/16 05:37:05;;;;;;;29.33;24.88;;;7.10;87.80;;;;;;5024626;28;20033;-74
2022/03/16 05:39:31;;;;;;;31.05;25.50;;;7.10;87.80;;;;;;5025568;28;20119;-75
2022/03/16 05:41:56;;;;;;;30.25;25.63;;;7.10;87.80;;;;;;5026777;28;20068;-76
2022/03/16 05:44:22;;;;;;;29.10;25.02;;;7.10;87.90;;;;;;5022013;28;20732;-76
2022/03/16 05:46:48;;;;;;;29.17;25.25;;;7.10;87.90;;;;;;5026497;28;20898;-74
2022/03/16 05:49:14;;;;;;;30.02;25.30;;;7.00;87.80;;;;;;5024335;28;20118;-75
2022/03/16 05:51:39;;;;;;;27.80;24.48;;;7.00;88.00;;;;;;5025493;28;20038;-75
2022/03/16 05:54:05;;;;;;;28.30;24.98;;;6.90;88.10;;;;;;5026133;28;20448;-74
2022/03/16 05:56:31;;;;;;;30.27;25.33;;;6.90;88.00;;;;;;5025653;28;20048;-73
2022/03/16 05:58:57;;;;;;;26.52;23.15;;;6.90;88.00;;;;;;5025138;28;20076;-76
2022/03/16 06:01:23;;;;;;;36.90;27.42;;;6.80;88.00;;;;;;5025924;28;20044;-75
2022/03/16 06:03:49;;;;;;;30.45;26.73;;;6.90;88.00;;;;;;5022699;28;20037;-76
2022/03/16 06:06:15;;;;;;;36.10;32.13;;;6.80;88.00;;;;;;5024952;28;20041;-76
2022/03/16 06:08:41;;;;;;;33.35;27.25;;;6.80;88.00;;;;;;5023935;28;20048;-74
2022/03/16 06:11:07;;;;;;;30.48;27.25;;;6.80;88.00;;;;;;5024121;28;20037;-75
2022/03/16 06:13:32;;;;;;;30.45;25.55;;;6.80;88.00;;;;;;5023675;28;20041;-75
2022/03/16 06:15:58;;;;;;;28.98;24.00;;;6.70;88.20;;;;;;5024889;28;20029;-76
2022/03/16 06:18:23;;;;;;;29.58;24.25;;;6.80;88.20;;;;;;5021532;28;20065;-74
2022/03/16 06:20:49;;;;;;;31.55;25.38;;;6.80;88.20;;;;;;5020047;28;20119;-81
2022/03/16 06:23:15;;;;;;;30.15;24.75;;;6.80;88.10;;;;;;5021757;28;20457;-73
2022/03/16 06:25:41;;;;;;;28.10;24.02;;;6.80;87.90;;;;;;5020119;28;20048;-74
2022/03/16 06:28:07;;;;;;;30.85;24.73;;;6.80;87.80;;;;;;5026592;28;20041;-76
2022/03/16 06:30:32;;;;;;;31.58;25.33;;;6.80;87.80;;;;;;5029324;28;20049;-74
2022/03/16 06:32:58;;;;;;;31.15;25.27;;;6.80;87.80;;;;;;5026432;28;20055;-74
2022/03/16 06:35:24;;;;;;;29.42;24.88;;;6.80;87.90;;;;;;5026396;28;20107;-73
2022/03/16 06:37:50;;;;;;;31.52;24.80;;;6.80;87.90;;;;;;5031462;28;20416;-73
2022/03/16 06:40:16;;;;;;;30.85;24.67;;;6.90;87.90;;;;;;5031077;28;20040;-77
2022/03/16 06:43:00;;;;;;;27.98;23.50;;;6.90;87.90;;;;;;5029856;28;20037;-75
2022/03/16 06:45:27;;;;;;;29.52;24.58;;;7.00;87.90;;;;;;5031148;28;20052;-77
2022/03/16 06:47:57;;;;;;;28.58;24.20;;;7.10;87.60;;;;;;5035832;28;20049;-75
2022/03/16 06:50:23;;;;;;;29.85;24.67;;;7.10;87.40;;;;;;5026093;28;20036;-74
2022/03/16 06:52:49;;;;;;;31.25;24.40;;;7.10;87.20;;;;;;5023588;28;20030;-79
2022/03/16 06:55:15;;;;;;;28.25;23.33;;;7.10;87.10;;;;;;5024826;28;20383;-76
2022/03/16 06:57:40;;;;;;;27.63;24.42;;;7.30;87.20;;;;;;5025060;28;20178;-78
2022/03/16 07:00:09;;;;;;;27.70;23.55;;;7.40;87.00;;;;;;5021876;28;20079;-75
2022/03/16 07:02:56;;;;;;;29.20;22.83;;;7.50;86.70;;;;;;5028126;28;20029;-75
2022/03/16 07:05:26;;;;;;;27.88;22.75;;;7.50;86.40;;;;;;5026202;28;20397;-77
2022/03/16 07:07:51;;;;;;;27.27;23.48;;;7.60;86.30;;;;;;5026317;28;20115;-76
2022/03/16 07:10:18;;;;;;;27.17;23.38;;;7.60;85.90;;;;;;5021243;28;20471;-74
2022/03/16 07:12:43;;;;;;;26.80;21.88;;;7.60;85.70;;;;;;5021313;28;20045;-73
2022/03/16 07:15:09;;;;;;;27.73;22.73;;;7.80;85.70;;;;;;5025124;28;20439;-75
2022/03/16 07:17:36;;;;;;;27.27;22.15;;;7.80;85.50;;;;;;5015003;28;20030;-74
2022/03/16 07:20:04;;;;;;;26.75;21.45;;;7.90;85.30;;;;;;5023360;28;20033;-77
2022/03/16 07:22:30;;;;;;;25.83;20.85;;;7.90;85.10;;;;;;5020900;28;20029;-77
2022/03/16 07:24:57;;;;;;;24.20;21.55;;;8.00;84.90;;;;;;5021630;28;20503;-78
2022/03/16 07:27:24;;;;;;;26.52;21.80;;;8.00;84.40;;;;;;5019364;28;20053;-77
2022/03/16 07:29:50;;;;;;;26.63;22.45;;;8.10;84.60;;;;;;5020637;28;20112;-78
2022/03/16 07:32:16;;;;;;;28.40;22.15;;;8.10;84.50;;;;;;5021246;28;20345;-77
2022/03/16 07:34:43;;;;;;;27.88;22.90;;;8.10;84.40;;;;;;5017481;28;20037;-77
2022/03/16 07:37:09;;;;;;;24.70;20.92;;;8.20;84.10;;;;;;5016707;28;20033;-78
2022/03/16 07:39:36;;;;;;;25.50;21.98;;;8.10;84.00;;;;;;5016940;28;20451;-75
2022/03/16 07:42:03;;;;;;;25.63;20.90;;;8.10;84.20;;;;;;5020688;28;20346;-75
2022/03/16 07:44:29;;;;;;;24.75;21.98;;;8.20;84.10;;;;;;5023905;28;20032;-75
2022/03/16 07:46:55;;;;;;;25.38;21.55;;;8.30;84.00;;;;;;5017205;28;20037;-76
2022/03/16 07:49:21;;;;;;;25.60;21.52;;;8.30;83.80;;;;;;5019987;28;20042;-75
2022/03/16 07:51:47;;;;;;;27.33;21.45;;;8.40;83.70;;;;;;5020638;28;20026;-75
2022/03/16 07:54:13;;;;;;;24.80;21.30;;;8.50;83.50;;;;;;5021825;28;20038;-74
2022/03/16 07:56:40;;;;;;;26.35;20.67;;;8.60;83.50;;;;;;5020749;28;20084;-74
2022/03/16 07:59:06;;;;;;;27.23;23.02;;;8.60;83.10;;;;;;5018979;28;20041;-75
2022/03/16 08:01:32;;;;;;;26.30;19.88;;;8.70;83.10;;;;;;5020486;28;20385;-74
2022/03/16 08:03:57;;;;;;;25.08;21.52;;;8.80;82.80;;;;;;5026095;28;20608;-76
2022/03/16 08:06:23;;;;;;;25.30;21.33;;;8.90;82.80;;;;;;5016373;28;20030;-75
2022/03/16 08:08:49;;;;;;;25.58;21.23;;;8.90;82.40;;;;;;5022208;28;20057;-74
2022/03/16 08:11:15;;;;;;;24.88;20.73;;;9.00;82.50;;;;;;5015505;28;20488;-76
2022/03/16 08:13:41;;;;;;;26.20;21.15;;;9.10;82.60;;;;;;5018995;28;20097;-75
2022/03/16 08:16:07;;;;;;;29.25;22.27;;;9.30;82.20;;;;;;5020665;28;20038;-76
2022/03/16 08:18:34;;;;;;;26.85;21.17;;;9.40;81.40;;;;;;5022386;28;20467;-77
2022/03/16 08:21:00;;;;;;;25.23;21.48;;;9.50;81.60;;;;;;5021549;28;20480;-77
2022/03/16 08:23:26;;;;;;;24.52;20.00;;;9.60;81.10;;;;;;5025856;28;20516;-78
2022/03/16 08:25:51;;;;;;;27.58;20.20;;;9.70;80.60;;;;;;5027153;28;20043;-79
2022/03/16 08:28:17;;;;;;;25.77;20.63;;;9.80;80.50;;;;;;5027835;28;20033;-77
2022/03/16 08:30:43;;;;;;;23.80;20.13;;;9.80;80.60;;;;;;5020990;28;20171;-78
2022/03/16 08:33:08;;;;;;;25.60;19.85;;;9.90;80.50;;;;;;5018815;28;20272;-79
2022/03/16 08:35:34;;;;;;;23.50;19.77;;;10.10;80.00;;;;;;5027462;28;20049;-76
2022/03/16 08:38:00;;;;;;;25.80;20.77;;;10.00;79.80;;;;;;5019771;28;20072;-74
2022/03/16 08:40:25;;;;;;;27.10;20.55;;;10.00;79.90;;;;;;5022037;28;20079;-74
2022/03/16 08:42:52;;;;;;;25.20;20.40;;;10.00;79.90;;;;;;5037014;28;20087;-75
2022/03/16 08:45:19;;;;;;;26.35;19.95;;;10.10;79.80;;;;;;5043448;28;20029;-73
2022/03/16 08:47:45;;;;;;;22.25;18.40;;;10.20;79.50;;;;;;5043498;28;20017;-74
2022/03/16 08:50:11;;;;;;;26.05;19.92;;;10.10;79.60;;;;;;5037488;28;20036;-74
2022/03/16 08:52:37;;;;;;;25.55;19.95;;;10.30;79.30;;;;;;5023189;28;20116;-75
2022/03/16 08:55:05;;;;;;;23.95;19.50;;;10.30;79.10;;;;;;5021342;28;20026;-75
2022/03/16 08:57:32;;;;;;;28.85;20.05;;;10.40;79.60;;;;;;5018760;28;20119;-75
2022/03/16 09:00:00;;;;;;;27.30;20.15;;;10.40;79.10;;;;;;5021764;28;20033;-74
2022/03/16 09:02:26;;;;;;;26.20;19.42;;;10.60;79.00;;;;;;5018555;28;20494;-74
2022/03/16 09:04:53;;;;;;;26.63;19.02;;;10.60;79.00;;;;;;5022640;28;20035;-74
2022/03/16 09:07:18;;;;;;;28.88;19.67;;;10.70;78.90;;;;;;5020342;28;20040;-74
2022/03/16 09:09:44;;;;;;;24.13;17.70;;;10.60;78.50;;;;;;5025385;28;20389;-74
2022/03/16 09:12:11;;;;;;;23.83;18.05;;;10.60;78.40;;;;;;5020760;28;20032;-73
2022/03/16 09:14:41;;;;;;;29.02;19.40;;;10.70;78.40;;;;;;5017589;28;20053;-74
2022/03/16 09:17:10;;;;;;;24.48;19.02;;;10.60;78.50;;;;;;5021384;28;20078;-75
2022/03/16 09:19:37;;;;;;;24.27;18.35;;;10.60;79.00;;;;;;5018250;28;20360;-75
2022/03/16 09:22:04;;;;;;;26.10;19.05;;;10.70;78.80;;;;;;5017984;28;20390;-75
2022/03/16 09:24:30;;;;;;;23.05;18.63;;;10.80;78.50;;;;;;5022399;28;20033;-74
2022/03/16 09:26:59;;;;;;;25.77;19.33;;;10.90;78.20;;;;;;5017541;28;20091;-75
2022/03/16 09:29:26;;;;;;;26.00;19.60;;;10.70;78.70;;;;;;5015566;28;20029;-75
2022/03/16 09:31:52;;;;;;;25.08;18.38;;;10.70;78.80;;;;;;5018172;28;20025;-73
2022/03/16 09:34:18;;;;;;;24.73;19.45;;;10.70;78.70;;;;;;5020555;28;20642;-73
2022/03/16 09:36:45;;;;;;;24.73;17.95;;;10.70;79.00;;;;;;5054778;28;20916;-77
2022/03/16 09:39:12;;;;;;;24.65;18.73;;;10.60;79.40;;;;;;5022509;28;20123;-78
2022/03/16 09:41:38;;;;;;;25.75;20.63;;;10.70;79.70;;;;;;5028309;28;20199;-78
2022/03/16 09:44:06;;;;;;;23.77;19.60;;;10.80;79.30;;;;;;5015512;28;20504;-76
2022/03/16 09:46:37;;;;;;;24.92;19.58;;;11.00;79.10;;;;;;5020157;28;20452;-78
2022/03/16 09:49:08;;;;;;;24.25;19.42;;;11.20;78.40;;;;;;5015818;28;20041;-80
2022/03/16 09:51:36;;;;;;;24.92;18.63;;;11.40;77.70;;;;;;5022362;28;20025;-81
2022/03/16 09:54:08;;;;;;;25.73;18.98;;;11.50;77.90;;;;;;5026912;28;20109;-79
2022/03/16 09:56:35;;;;;;;23.15;18.30;;;11.60;77.40;;;;;;5024067;28;20170;-78
2022/03/16 09:59:02;;;;;;;27.13;18.67;;;11.70;77.00;;;;;;5020240;28;20043;-79
2022/03/16 10:01:28;;;;;;;24.13;17.27;;;11.80;76.70;;;;;;5033291;28;20397;-79
2022/03/16 10:04:05;;;;;;;23.92;18.08;;;11.90;76.30;;;;;;5023987;28;20034;-79
2022/03/16 10:06:34;;;;;;;30.20;18.52;;;11.90;76.60;;;;;;5020569;28;20029;-78
2022/03/16 10:15:01;;;;;;;25.80;18.95;;;11.60;77.00;;;;;;5017622;28;20055;-79
2022/03/16 10:17:43;;;;;;;22.88;17.48;;;11.80;76.90;;;;;;5018214;28;20037;-81
2022/03/16 10:20:32;;;;;;;25.55;18.63;;;11.80;76.90;;;;;;5020103;28;20483;-81
2022/03/16 10:23:00;;;;;;;23.77;18.60;;;11.90;77.10;;;;;;5020038;28;20098;-79
2022/03/16 10:25:29;;;;;;;25.25;18.65;;;11.90;76.80;;;;;;5017799;28;20045;-78
2022/03/16 10:28:12;;;;;;;24.85;17.92;;;11.90;77.10;;;;;;5024228;28;20033;-78
2022/03/16 10:31:08;;;;;;;25.35;19.58;;;11.80;77.30;;;;;;5011635;28;20048;-79
2022/03/16 10:33:53;;;;;;;24.55;18.58;;;11.70;77.80;;;;;;5023556;28;20598;-78
2022/03/16 10:36:28;;;;;;;27.17;18.67;;;11.80;77.90;;;;;;5019113;28;20611;-78
2022/03/16 10:39:02;;;;;;;26.58;19.27;;;11.90;77.90;;;;;;5016603;28;20033;-78
2022/03/16 10:47:13;;;;;;;23.10;17.42;;;11.90;77.50;;;;;;5014006;28;20444;-78
2022/03/16 10:49:39;;;;;;;27.88;18.98;;;11.90;77.40;;;;;;5013819;28;20025;-77
2022/03/16 10:52:13;;;;;;;24.20;18.55;;;11.80;77.50;;;;;;5018819;28;20526;-79
2022/03/16 10:54:39;;;;;;;25.50;18.38;;;11.90;77.80;;;;;;5028573;28;20033;-80
2022/03/16 10:57:10;;;;;;;24.50;19.13;;;11.90;77.80;;;;;;5021871;28;20496;-78
2022/03/16 10:59:38;;;;;;;28.23;19.92;;;11.90;77.80;;;;;;5025097;28;20346;-79
2022/03/16 11:02:06;;;;;;;24.40;18.52;;;12.00;77.80;;;;;;5018902;28;20144;-79
2022/03/16 11:04:34;;;;;;;27.20;18.50;;;12.10;77.60;;;;;;5022715;28;20365;-80
2022/03/16 11:07:01;;;;;;;25.05;17.77;;;12.10;77.60;;;;;;5015490;28;20044;-81
2022/03/16 11:09:28;;;;;;;24.67;18.10;;;12.10;77.40;;;;;;5024405;28;20513;-80
2022/03/16 11:14:41;;;;;;;24.40;17.67;;;12.10;76.90;;;;;;5012344;28;20036;-79
2022/03/16 11:17:07;;;;;;;27.83;18.30;;;12.20;76.90;;;;;;5019278;28;20037;-78
2022/03/16 11:19:34;;;;;;;24.33;17.98;;;12.30;76.70;;;;;;5020476;28;20041;-79
2022/03/16 11:22:13;;;;;;;24.17;18.35;;;12.40;76.70;;;;;;5017922;28;20141;-77
2022/03/16 11:24:45;;;;;;;25.25;18.27;;;12.40;76.60;;;;;;5020275;28;20041;-79
2022/03/16 11:27:40;;;;;;;28.88;19.45;;;12.30;77.10;;;;;;5014418;28;22450;-79
2022/03/16 11:30:33;;;;;;;26.25;18.48;;;12.40;77.20;;;;;;5021875;28;20033;-79
2022/03/16 11:33:05;;;;;;;24.73;18.20;;;12.30;76.80;;;;;;5020069;28;20060;-79
2022/03/16 11:35:32;;;;;;;26.73;20.15;;;12.40;76.90;;;;;;5018905;28;20125;-77
2022/03/16 11:38:03;;;;;;;28.10;20.27;;;12.50;76.80;;;;;;5018065;28;20038;-78
2022/03/16 11:40:30;;;;;;;27.25;19.92;;;12.40;77.10;;;;;;5023963;28;20190;-77
2022/03/16 11:43:23;;;;;;;26.88;19.77;;;12.40;77.20;;;;;;5024115;28;20037;-78
2022/03/16 11:45:54;;;;;;;27.90;20.45;;;12.50;77.20;;;;;;5019671;28;20465;-77
2022/03/16 11:48:32;;;;;;;29.98;20.83;;;12.40;76.90;;;;;;5021070;28;20045;-78
2022/03/16 11:51:11;;;;;;;29.30;20.50;;;12.60;77.10;;;;;;5028006;28;20393;-76
2022/03/16 11:53:46;;;;;;;27.50;19.02;;;12.60;77.10;;;;;;5018084;28;20067;-79
2022/03/16 11:56:21;;;;;;;31.38;19.92;;;12.60;77.00;;;;;;5017917;28;20377;-79
2022/03/16 11:58:52;;;;;;;28.60;20.10;;;12.70;76.90;;;;;;5022915;28;20455;-79
2022/03/16 12:01:28;;;;;;;29.85;20.70;;;12.80;76.80;;;;;;5027477;28;20037;-77
2022/03/16 12:04:02;;;;;;;32.47;22.02;;;12.80;76.90;;;;;;5016940;28;20048;-77
2022/03/16 12:07:10;;;;;;;31.15;21.05;;;13.00;76.50;;;;;;5022403;28;20428;-78
2022/03/16 12:09:45;;;;;;;29.77;20.92;;;12.90;76.50;;;;;;5015104;28;20412;-78
2022/03/16 12:12:54;;;;;;;29.75;20.45;;;13.00;76.60;;;;;;5019254;28;20033;-78
2022/03/16 12:15:38;;;;;;;30.15;20.88;;;13.00;76.20;;;;;;5018454;28;20096;-78
2022/03/16 12:18:07;;;;;;;30.63;21.23;;;13.10;76.60;;;;;;5019875;28;20914;-77
2022/03/16 12:20:44;;;;;;;30.65;22.13;;;13.00;76.20;;;;;;5021213;28;20045;-78
2022/03/16 12:23:18;;;;;;;32.80;22.38;;;13.00;76.70;;;;;;5019217;28;20057;-78
2022/03/16 12:25:47;;;;;;;31.10;21.85;;;12.90;76.90;;;;;;5028870;28;20067;-78
2022/03/16 12:31:03;;;;;;;35.88;23.33;;;13.10;76.50;;;;;;5018342;28;20033;-78
2022/03/16 12:33:37;;;;;;;39.30;23.15;;;13.10;76.20;;;;;;5014669;28;20091;-78
2022/03/16 12:36:07;;;;;;;;;;;13.10;76.10;;;;;;5014343;28;20656;-81
2022/03/16 12:38:37;;;;;;;38.28;23.02;;;13.20;76.60;;;;;;5020347;28;20326;-78
2022/03/16 12:43:59;;;;;;;34.42;22.65;;;13.30;76.00;;;;;;5013029;28;20079;-78
2022/03/16 12:46:35;;;;;;;38.53;22.95;;;13.30;75.90;;;;;;5016343;28;20507;-78
2022/03/16 12:49:11;;;;;;;36.35;24.35;;;13.40;76.30;;;;;;5020830;28;20081;-79
2022/03/16 12:51:50;;;;;;;32.15;22.83;;;13.40;75.60;;;;;;5011705;28;20155;-78
2022/03/16 12:54:21;;;;;;;33.65;22.92;;;13.40;75.40;;;;;;5019083;28;20676;-79
2022/03/16 12:56:52;;;;;;;33.33;24.27;;;13.40;75.90;;;;;;5017328;28;20041;-75